Latest METARs, TAFs and NOTAMs for SBRF


---------------------------------------------------------------------------
	(OBSERVATIONS)
SBRF 171100Z 14012KT 9999 FEW023 27/20 Q1020=
SBRF 171000Z 14010KT 9999 SCT023 26/21 Q1019=
SBRF 170900Z 13008KT 9999 SCT023 25/20 Q1019=
---------------------------------------------------------------------------
	(TERMINAL AREA FORECAST)
SBRF 171000Z 1712/1812 13010KT 9999 SCT022 TX28/1714Z TN24/1809Z
    RMK
    PCH=
---------------------------------------------------------------------------
	(NOTAMS)


SBRF I0098/17 IAP ILS X RWY 18 WITHDRAWN REF: AIP AD 2.24. 02
    MAR 18:09 2017 UNTIL PERM. CREATED: 02 MAR 18:13 2017

SBRF I0263/18 AD EXCLUDE RMK: VOR/DME NO AVBL BTN RDL 009/019
    VOR/DME RESTRICTED TO 36NM BTN RDL 048/058 AND RDL 266/276
    REF: AIP ENR 4.1 AD 2.19. 29 MAR 18:16 2018 UNTIL PERM. CREATED:
    29 MAR 18:15 2018

SBRF I0407/18 A/G FAC TWR (CLRD) FREQ 118.9MHZ INSTL. 01 JUN
    00:00 2018 UNTIL 29 AUG 23:59 2018. CREATED: 15 MAY 14:48
    2018

SBRF I0431/16 TWR - D-CL (DATA LINK CLRD) AUTH OF TFC VIA DATA
    LINK ACT H24 REF: AIP AD 2.24. 12 AUG 21:02 2016 UNTIL PERM.
    CREATED: 12 AUG 21:13 2016

SBRF I0451/16 IAP RNAV (GNSS) RWY 36 CHANGED REP : 1 - RF002
    TO SATMA 2 - RF006 TO LOLUK REF: AIP AD 2.24 CNS123W SEQUENCE
    CHECK FOR SBRJYNYX I -- EXPECTED I0450/16 -- RECEIVED I0451/16.
    01 SEP 23:33 2016 UNTIL PERM. CREATED: 01 SEP 23:36 2016

SBRF I0451/17 D-ATIS (DATA LINK ATIS) HR SER H24 INSTL REF: AIP
    AD 2.24 IAC(ALL), STAR(ALL), PDC, VAC. 16 AUG 14:29 2017
    UNTIL PERM. CREATED: 16 AUG 14:34 2017

SBRF I0453/16 IAP RNAV (GNSS) RWY 18 CHANGED REP RF012 TO ANDOX
    REF: AIP AD 2.24. 01 SEP 23:38 2016 UNTIL PERM. CREATED:
    01 SEP 23:39 2016

SBRF I0504/16 IAP ILS W RWY 18 CHANGED REP RF012 TO ANDOX REF:
    AIP AD 2.24. 23 SEP 17:20 2016 UNTIL PERM. CREATED: 23 SEP
    17:19 2016

SBRF I0514/18 AD NOISE ABATEMENT PROC CHANGED TO: AIRCRAFT CAUSING
    A NOISE LEVEL ABOVE THAT ALLOWED ARE THOSE THAT DO NOT COMPLY
    WITH THE REQUIREMENTS ESTABLISHED IN THE BRAVO AND CHARLIE
    LETTERS OF ITEM 36.103 OF THE BRAZILIAN AVIACAO CIVIL (RBAC
    36), EQUIVALENT TO CHAPTERS 3 A ND 4, RESPECTIVELY, OF ANNEX
    16 VOLUME 1 OF THE INTERNATIONAL CIVIL AVIATION CONVENTION
    RESTRICTIONS FOR DEP : PROCEDURES FOR DEPARTURE SHOULD BE
    CONFORMED ESTIMATED IN SID REF: AIP BRAZIL AD 2.21. 11 JUN
    21:08 2018 UNTIL PERM. CREATED: 11 JUN 21:07 2018

SBRF I0540/18 OBST (MAST) LGTD COORD 080705.90S/0345340.26W ELEV
    245,41 FT. 15 JUN 18:15 2018 UNTIL 11 SEP 23:59 2018. CREATED:
    15 JUN 18:11 2018

SBRF I0543/18 AIS CHANGED RMK NOISE ABATEMENT PROC TO: NOISE
    ABATEMENT PROC FOR ACFT CONSIDERED NOISY, ACCORDING AIP BRAZIL
    AD 2.21 BETWEEN 0100-0900 UTC EXECUTE SPECIFIC NOISE ABATEMENT
    PROC OF EQPT O R MAINTAIN V2+10KT UNTIL 900FT AFTER BETWEEN
    V2+10KTE AND V2+20KT UNTIL 3100FT REF: AIP BRAZIL AD2.24
    (ALL SID. 20 JUN 12:45 2018 UNTIL PERM. CREATED: 20 JUN 13:52
    2018

SBRF I0623/18 FLOW MANAGEMENT PROC ACT ACFT TKOF FROM SBRF DEST
    TO SBCF, SBKP, S BSP AND SBGR SHALL TAKE THE FOLLOWING PREFERENTIAL
    RTE: 1-SBCF: KIDAN UZ59 AVILA UZ14 TOMAS UZ21 OPVUK 2-SBKP:
    KIDAN UZ59 AVILA UZ30 ENTIT 3-SBSP: KIDAN UZ59 AVILA UZ30
    ENTIT 4-SBGR: MCE UZ42 RAIRA DCT PUBAV UZ16 POSMU DCT CNF
    UZ21 MOXEP. 14 JUL 15:30 2018 UNTIL 10 OCT 23:59 2018. CREATED:
    14 JUL 15:30 2018

SBRF I0676/18 OBST (TOWER) NEG LGTD IN VIOLATION OF THE PLAN
    BASED ON THE ZONE O F PROTECTION OF THE AD COORD 080531.04S0345643.28W,
    ALT 67,00M REF: AIP AD 2.10 AIP MAP VAC, AOC. 13 AUG 13:44
    2018 UNTIL PERM. CREATED: 13 AUG 14:39 2018

SBRF I0677/18 AIS OPR IN SELF-SERVICE MODALITY RMK: FOR ADDITIONAL
    INFORMATION C ONSULT CAIS-RE BY PHONE/FAX PLN +55 81 2129-8215
    AIP BRASIL AD 2. 20 AUG 00:00 2018 UNTIL PERM. CREATED: 13
    AUG 16:10 2018

SBRF I0687/18 UA (RPA FLT) WILL TAKE PLACE COORD CENTER 081742.50S0350135.98W
    ( CABO DE SANTO AGOSTINHO-PE) RADIUS 50M. SFC - 300FT AMSL,
    28 AUG 18:00 2018 UNTIL 30 AUG 20:00 2018. CREATED: 15 AUG
    20:12 2018

SBRF I0856/17 VSA NDB 285KHZ WITHDRAWN REF: AIP BRASIL ENR 4.1,
    ENR 6.1 L3, ENR 6.1 H3; AIP AD 2.24 (SID, ARC. 18 DEC 18:07
    2017 UNTIL PERM. CREATED: 18 DEC 18:06 2017

---------------------------------------------------------------------------